Time;durP1;ratioP1;P1;durP2;ratioP2;P2;SDS_P1;SDS_P2;PMS_P1;PMS_P2;Temp;Humidity;BMP_temperature;BMP_pressure;BME280_temperature;BME280_humidity;BME280_pressure;Samples;Min_cycle;Max_cycle;Signal;HPM_P1;HPM_P2
2022/01/10 00:00:10;;;;;;;11.32;4.45;;;5.50;99.90;;;;;;5108591;28;20196;-71
2022/01/10 00:02:38;;;;;;;11.38;3.60;;;5.40;99.90;;;;;;5113740;28;20221;-69
2022/01/10 00:05:07;;;;;;;9.32;3.15;;;5.40;99.90;;;;;;5112248;28;20200;-71
2022/01/10 00:07:35;;;;;;;10.77;4.90;;;5.40;99.90;;;;;;5102914;28;20308;-70
2022/01/10 00:10:03;;;;;;;6.88;3.38;;;5.40;99.90;;;;;;5101677;28;20282;-70
2022/01/10 00:12:31;;;;;;;6.80;2.85;;;5.30;99.90;;;;;;5101110;28;20272;-71
2022/01/10 00:14:59;;;;;;;18.75;4.03;;;5.30;99.90;;;;;;5101618;28;20287;-72
2022/01/10 00:17:28;;;;;;;16.98;3.58;;;5.30;99.90;;;;;;5101119;28;20226;-72
2022/01/10 00:19:56;;;;;;;9.07;3.80;;;5.30;99.90;;;;;;5100932;28;20820;-73
2022/01/10 00:22:26;;;;;;;13.60;3.38;;;5.30;99.90;;;;;;5100993;28;20295;-72
2022/01/10 00:24:54;;;;;;;14.30;3.88;;;5.30;99.90;;;;;;5101195;28;20199;-72
2022/01/10 00:27:22;;;;;;;6.97;3.55;;;5.30;99.90;;;;;;5100584;27;20222;-72
2022/01/10 00:29:50;;;;;;;7.95;3.42;;;5.30;99.90;;;;;;5101261;28;20853;-71
2022/01/10 00:32:17;;;;;;;8.82;3.40;;;5.30;99.90;;;;;;5100657;28;20203;-72
2022/01/10 00:34:47;;;;;;;9.85;3.20;;;5.30;99.90;;;;;;5100940;28;20256;-70
2022/01/10 00:37:14;;;;;;;10.88;4.15;;;5.30;99.90;;;;;;5100809;28;20276;-69
2022/01/10 00:39:42;;;;;;;13.20;4.00;;;5.40;99.90;;;;;;5101507;28;20205;-70
2022/01/10 00:42:10;;;;;;;15.35;3.65;;;5.40;99.90;;;;;;5100240;28;20721;-69
2022/01/10 00:44:44;;;;;;;8.40;3.80;;;5.40;99.90;;;;;;5099749;28;20216;-69
2022/01/10 00:47:13;;;;;;;9.15;4.32;;;5.50;99.90;;;;;;5100897;28;20219;-71
2022/01/10 00:49:41;;;;;;;8.57;3.95;;;5.50;99.90;;;;;;5100573;28;20202;-71
2022/01/10 00:52:10;;;;;;;10.57;4.47;;;5.50;99.90;;;;;;5100375;27;20200;-63
2022/01/10 00:54:38;;;;;;;12.23;4.03;;;5.40;99.90;;;;;;5100317;28;20806;-63
2022/01/10 00:57:07;;;;;;;6.72;3.88;;;5.50;99.90;;;;;;5100438;28;20245;-66
2022/01/10 00:59:34;;;;;;;14.52;4.53;;;5.50;99.90;;;;;;5100224;28;20310;-64
2022/01/10 01:02:03;;;;;;;13.18;4.15;;;5.50;99.90;;;;;;5100110;28;20207;-64
2022/01/10 01:04:32;;;;;;;12.90;3.83;;;5.60;99.90;;;;;;5099623;28;20689;-64
2022/01/10 01:06:59;;;;;;;8.30;3.72;;;5.60;99.90;;;;;;5099651;27;20296;-63
2022/01/10 01:09:30;;;;;;;6.90;4.78;;;5.70;99.90;;;;;;5100071;28;20286;-65
2022/01/10 01:14:54;;;;;;;8.65;4.32;;;5.70;99.90;;;;;;5097667;27;20232;-64
2022/01/10 01:17:46;;;;;;;9.85;3.70;;;5.70;99.90;;;;;;5099608;28;20726;-65
2022/01/10 01:20:42;;;;;;;15.10;4.00;;;5.70;99.90;;;;;;5100349;28;20225;-63
2022/01/10 01:26:01;;;;;;;13.43;4.28;;;5.70;99.90;;;;;;5099896;27;20219;-65
2022/01/10 01:28:30;;;;;;;11.98;4.38;;;5.70;99.90;;;;;;5099794;28;20204;-64
2022/01/10 01:30:58;;;;;;;19.98;5.10;;;5.80;99.90;;;;;;5095710;28;20197;-64
2022/01/10 01:33:26;;;;;;;6.72;3.80;;;5.80;99.90;;;;;;5095712;27;20214;-63
2022/01/10 01:35:54;;;;;;;9.88;3.90;;;5.80;99.90;;;;;;5095742;28;20299;-65
2022/01/10 01:38:22;;;;;;;12.52;3.70;;;5.80;99.90;;;;;;5097849;28;20449;-65
2022/01/10 01:40:56;;;;;;;11.95;4.80;;;5.80;99.90;;;;;;5087343;28;20192;-66
2022/01/10 01:43:25;;;;;;;8.02;3.63;;;5.80;99.90;;;;;;5097535;28;20682;-65
2022/01/10 01:45:53;;;;;;;9.88;4.82;;;5.90;99.90;;;;;;5095715;28;20280;-65
2022/01/10 01:48:22;;;;;;;10.48;4.95;;;5.90;99.90;;;;;;5098732;28;20206;-64
2022/01/10 01:50:50;;;;;;;8.50;4.00;;;5.90;99.90;;;;;;5086204;28;20192;-67
2022/01/10 01:53:18;;;;;;;8.15;3.80;;;5.90;99.90;;;;;;5097768;28;20214;-66
2022/01/10 01:55:46;;;;;;;8.88;3.90;;;6.00;99.90;;;;;;5098317;28;20200;-66
2022/01/10 01:58:14;;;;;;;12.93;4.47;;;6.00;99.90;;;;;;5088796;28;20196;-66
2022/01/10 02:00:43;;;;;;;6.05;4.13;;;6.00;99.90;;;;;;5087888;27;20755;-66
2022/01/10 02:03:11;;;;;;;7.75;3.83;;;6.00;99.90;;;;;;5098347;28;20659;-66
2022/01/10 02:05:39;;;;;;;8.15;4.05;;;6.00;99.90;;;;;;5087738;28;20219;-67
2022/01/10 02:08:08;;;;;;;14.98;4.45;;;6.00;99.90;;;;;;5088626;28;20354;-66
2022/01/10 02:10:36;;;;;;;8.73;4.43;;;6.10;99.90;;;;;;5095170;28;20584;-64
2022/01/10 02:13:05;;;;;;;8.20;3.80;;;6.10;99.90;;;;;;5097730;28;20199;-64
2022/01/10 02:15:42;;;;;;;15.13;5.53;;;6.10;99.90;;;;;;5092243;28;20404;-63
2022/01/10 02:18:11;;;;;;;8.07;3.97;;;6.10;99.90;;;;;;5098692;28;20240;-68
2022/01/10 02:20:40;;;;;;;7.25;3.85;;;6.10;99.90;;;;;;5098995;28;20195;-69
2022/01/10 02:23:08;;;;;;;10.65;4.65;;;6.10;99.90;;;;;;5099425;28;20199;-68
2022/01/10 02:25:36;;;;;;;9.52;4.22;;;6.10;99.90;;;;;;5101244;28;20233;-71
2022/01/10 02:28:05;;;;;;;12.13;4.20;;;6.20;99.90;;;;;;5101959;28;20734;-69
2022/01/10 02:30:33;;;;;;;10.35;6.28;;;6.10;99.90;;;;;;5101763;28;20203;-66
2022/01/10 02:33:01;;;;;;;10.32;4.72;;;6.10;99.90;;;;;;5098839;28;20203;-67
2022/01/10 02:35:34;;;;;;;11.68;4.28;;;6.10;99.90;;;;;;5099633;28;20988;-66
2022/01/10 02:38:04;;;;;;;14.02;4.65;;;6.00;99.90;;;;;;5099514;28;20199;-66
2022/01/10 02:40:33;;;;;;;8.73;4.43;;;6.00;99.90;;;;;;5099497;28;20302;-67
2022/01/10 02:43:02;;;;;;;14.95;4.60;;;5.90;99.90;;;;;;5099234;28;20635;-69
2022/01/10 02:45:30;;;;;;;13.40;5.22;;;5.90;99.90;;;;;;5098808;28;20227;-67
2022/01/10 02:47:57;;;;;;;8.13;3.75;;;5.90;99.90;;;;;;5099431;28;20456;-67
2022/01/10 02:50:25;;;;;;;11.93;4.50;;;5.90;99.90;;;;;;5099048;28;20210;-67
2022/01/10 02:52:53;;;;;;;11.40;5.30;;;5.90;99.90;;;;;;5098722;28;20280;-67
2022/01/10 02:55:22;;;;;;;20.23;5.68;;;5.90;99.90;;;;;;5098887;28;20199;-65
2022/01/10 02:57:50;;;;;;;9.88;4.00;;;5.90;99.90;;;;;;5100589;28;20222;-65
2022/01/10 03:00:24;;;;;;;14.80;5.03;;;5.90;99.90;;;;;;5099706;28;20448;-65
2022/01/10 03:02:54;;;;;;;8.23;4.78;;;5.90;99.90;;;;;;5099610;27;20199;-65
2022/01/10 03:05:24;;;;;;;15.63;4.47;;;5.90;99.90;;;;;;5099060;28;20664;-66
2022/01/10 03:07:55;;;;;;;10.15;5.97;;;5.80;99.90;;;;;;5098894;28;20224;-65
2022/01/10 03:10:24;;;;;;;8.77;5.32;;;5.80;99.90;;;;;;5101902;28;20210;-65
2022/01/10 03:12:52;;;;;;;14.52;4.63;;;5.80;99.90;;;;;;5102032;28;20571;-64
2022/01/10 03:15:20;;;;;;;12.30;5.03;;;5.80;99.90;;;;;;5102262;28;20202;-65
2022/01/10 03:17:47;;;;;;;12.43;4.40;;;5.80;99.90;;;;;;5101578;28;20227;-65
2022/01/10 03:20:15;;;;;;;12.30;3.95;;;5.70;99.90;;;;;;5101816;28;20212;-65
2022/01/10 03:22:43;;;;;;;16.90;4.82;;;5.70;99.90;;;;;;5101250;28;20370;-66
2022/01/10 03:25:11;;;;;;;19.63;9.95;;;5.70;99.90;;;;;;5100786;27;20753;-65
2022/01/10 03:27:41;;;;;;;27.20;11.25;;;5.50;99.90;;;;;;5100670;28;20236;-65
2022/01/10 03:30:10;;;;;;;19.42;10.30;;;5.30;99.90;;;;;;5100642;28;20459;-67
2022/01/10 03:32:38;;;;;;;20.90;10.73;;;5.20;99.90;;;;;;5100949;28;20294;-66
2022/01/10 03:35:07;;;;;;;19.38;9.18;;;5.20;99.90;;;;;;5100389;28;20571;-67
2022/01/10 03:37:34;;;;;;;23.80;9.65;;;5.20;99.90;;;;;;5101106;28;20555;-65
2022/01/10 03:40:03;;;;;;;17.75;8.30;;;5.00;99.90;;;;;;5101189;28;20300;-67
2022/01/10 03:42:31;;;;;;;19.63;8.85;;;5.00;99.90;;;;;;5100565;27;20218;-66
2022/01/10 03:45:00;;;;;;;26.17;9.85;;;5.00;99.90;;;;;;5100975;28;20241;-65
2022/01/10 03:47:28;;;;;;;23.00;9.05;;;5.00;99.90;;;;;;5101525;27;20318;-65
2022/01/10 03:49:56;;;;;;;25.60;9.65;;;4.90;99.90;;;;;;5101123;28;20705;-66
2022/01/10 03:52:25;;;;;;;21.73;10.45;;;4.80;99.90;;;;;;5100946;28;20625;-66
2022/01/10 03:54:54;;;;;;;18.20;9.70;;;4.70;99.90;;;;;;5100217;28;20665;-66
2022/01/10 03:57:21;;;;;;;25.02;8.60;;;4.60;99.90;;;;;;5100644;28;20280;-65
2022/01/10 03:59:49;;;;;;;9.52;7.10;;;4.60;99.90;;;;;;5100049;28;20689;-65
2022/01/10 04:02:18;;;;;;;9.75;7.38;;;4.50;99.90;;;;;;5100534;28;20207;-66
2022/01/10 04:04:46;;;;;;;17.33;7.95;;;4.40;99.90;;;;;;5099250;28;20306;-65
2022/01/10 04:07:16;;;;;;;9.95;7.00;;;4.50;99.90;;;;;;5101350;28;20384;-65
2022/01/10 04:09:46;;;;;;;7.57;6.65;;;4.50;99.90;;;;;;5102621;28;20414;-67
2022/01/10 04:12:14;;;;;;;12.90;7.75;;;4.50;99.90;;;;;;5101566;28;20200;-68
2022/01/10 04:14:42;;;;;;;10.57;7.63;;;4.50;99.90;;;;;;5101265;28;20196;-67
2022/01/10 04:17:11;;;;;;;11.18;6.80;;;4.50;99.90;;;;;;5101529;28;20216;-66
2022/01/10 04:19:40;;;;;;;10.07;7.03;;;4.50;99.90;;;;;;5100789;28;20290;-66
2022/01/10 04:22:08;;;;;;;9.02;6.88;;;4.60;99.90;;;;;;5099257;28;20750;-67
2022/01/10 04:24:36;;;;;;;12.60;8.73;;;4.60;99.90;;;;;;5099443;28;20229;-66
2022/01/10 04:27:04;;;;;;;10.65;7.68;;;4.60;99.90;;;;;;5099422;28;20220;-66
2022/01/10 04:29:32;;;;;;;10.95;8.55;;;4.70;99.90;;;;;;5099786;28;20272;-66
2022/01/10 04:32:01;;;;;;;9.93;7.13;;;4.70;99.90;;;;;;5099537;28;20682;-67
2022/01/10 04:34:28;;;;;;;10.13;7.90;;;4.70;99.90;;;;;;5099620;28;20227;-66
2022/01/10 04:36:58;;;;;;;11.20;7.68;;;4.70;99.90;;;;;;5099958;28;20584;-66
2022/01/10 04:39:26;;;;;;;8.80;7.50;;;4.80;99.90;;;;;;5099539;28;20459;-66
2022/01/10 04:41:53;;;;;;;9.05;7.30;;;4.80;99.90;;;;;;5099968;28;20208;-67
2022/01/10 04:44:21;;;;;;;8.60;7.40;;;4.80;99.90;;;;;;5099438;28;20200;-67
2022/01/10 04:46:51;;;;;;;10.90;7.93;;;4.80;99.90;;;;;;5099374;27;20486;-67
2022/01/10 04:49:21;;;;;;;8.45;7.00;;;4.80;99.90;;;;;;5099855;28;20209;-67
2022/01/10 04:51:49;;;;;;;8.90;7.13;;;4.80;99.90;;;;;;5099270;28;20690;-67
2022/01/10 04:54:19;;;;;;;9.50;8.02;;;4.80;99.90;;;;;;5099184;28;20304;-67
2022/01/10 04:56:47;;;;;;;8.95;6.70;;;4.80;99.90;;;;;;5099078;28;20220;-66
2022/01/10 04:59:15;;;;;;;9.25;7.65;;;4.70;99.90;;;;;;5098567;28;20203;-67
2022/01/10 05:01:43;;;;;;;9.73;7.70;;;4.80;99.90;;;;;;5098811;28;20708;-67
2022/01/10 05:04:11;;;;;;;9.77;8.00;;;4.80;99.90;;;;;;5099855;28;20218;-66
2022/01/10 05:06:38;;;;;;;12.15;8.35;;;4.70;99.90;;;;;;5100190;27;20227;-67
2022/01/10 05:09:06;;;;;;;11.77;9.63;;;4.80;99.90;;;;;;5101361;28;20206;-68
2022/01/10 05:11:38;;;;;;;9.55;8.27;;;4.80;99.90;;;;;;5100767;28;20272;-66
2022/01/10 05:14:06;;;;;;;12.00;9.32;;;4.70;99.90;;;;;;5106067;28;20290;-65
2022/01/10 05:16:34;;;;;;;10.95;9.60;;;4.60;99.90;;;;;;5106059;28;20212;-66
2022/01/10 05:19:02;;;;;;;11.85;9.60;;;4.60;99.90;;;;;;5108664;28;20223;-65
2022/01/10 05:21:30;;;;;;;13.57;9.80;;;4.60;99.90;;;;;;5109266;28;20883;-66
2022/01/10 05:23:58;;;;;;;12.63;9.98;;;4.60;99.90;;;;;;5109792;28;20215;-65
2022/01/10 05:26:26;;;;;;;11.57;9.07;;;4.70;99.90;;;;;;5108502;28;20396;-68
2022/01/10 05:28:55;;;;;;;14.60;10.65;;;4.70;99.90;;;;;;5103183;28;20208;-66
2022/01/10 05:31:24;;;;;;;14.27;10.93;;;4.70;99.90;;;;;;5099376;28;20214;-67
2022/01/10 05:33:52;;;;;;;14.55;10.77;;;4.70;99.90;;;;;;5098608;28;20296;-67
2022/01/10 05:36:19;;;;;;;15.30;11.20;;;4.70;99.90;;;;;;5099468;28;20483;-66
2022/01/10 05:38:47;;;;;;;15.85;10.93;;;4.70;99.90;;;;;;5099449;28;20204;-66
2022/01/10 05:41:15;;;;;;;15.15;10.63;;;4.70;99.90;;;;;;5089026;28;20207;-67
2022/01/10 05:43:43;;;;;;;14.48;11.02;;;4.70;99.90;;;;;;5079040;28;20203;-66
2022/01/10 05:46:15;;;;;;;14.80;11.00;;;4.70;99.90;;;;;;5088189;28;20325;-68
2022/01/10 05:48:47;;;;;;;15.32;11.30;;;4.80;99.90;;;;;;5099973;28;20272;-69
2022/01/10 05:51:16;;;;;;;12.02;9.50;;;4.80;99.90;;;;;;5100717;28;20269;-71
2022/01/10 05:53:44;;;;;;;16.10;12.32;;;4.90;99.90;;;;;;5093778;27;20210;-71
2022/01/10 05:56:13;;;;;;;12.18;10.00;;;4.90;99.90;;;;;;5089080;28;20913;-70
2022/01/10 05:58:40;;;;;;;14.50;11.20;;;4.80;99.90;;;;;;5088289;28;20282;-72
2022/01/10 06:01:08;;;;;;;14.15;10.30;;;4.90;99.90;;;;;;5095434;28;20298;-68
2022/01/10 06:03:38;;;;;;;14.90;11.07;;;4.90;99.90;;;;;;5097480;28;20191;-69
2022/01/10 06:06:06;;;;;;;12.68;10.73;;;5.00;99.90;;;;;;5083978;28;20220;-74
2022/01/10 06:08:33;;;;;;;13.18;10.75;;;5.00;99.90;;;;;;5085586;28;20577;-69
2022/01/10 06:11:01;;;;;;;13.73;10.75;;;5.00;99.90;;;;;;5093512;27;20208;-70
2022/01/10 06:13:30;;;;;;;16.42;11.82;;;5.00;99.90;;;;;;5093284;28;20234;-72
2022/01/10 06:15:57;;;;;;;14.25;10.55;;;5.00;99.90;;;;;;5098291;28;20210;-72
2022/01/10 06:18:25;;;;;;;15.73;12.23;;;5.00;99.90;;;;;;5085612;27;20188;-69
2022/01/10 06:20:55;;;;;;;13.13;10.70;;;5.00;99.90;;;;;;5087830;28;20242;-70
2022/01/10 06:23:25;;;;;;;14.05;10.70;;;5.00;99.90;;;;;;5097900;28;20195;-70
2022/01/10 06:25:54;;;;;;;15.15;10.80;;;5.00;99.90;;;;;;5089034;28;20493;-70
2022/01/10 06:28:23;;;;;;;14.57;10.52;;;5.00;99.90;;;;;;5087387;28;20438;-71
2022/01/10 06:30:51;;;;;;;13.38;10.65;;;4.90;99.90;;;;;;5088182;27;20312;-72
2022/01/10 06:33:19;;;;;;;16.63;11.35;;;4.90;99.90;;;;;;5096550;28;20589;-71
2022/01/10 06:35:46;;;;;;;15.45;11.85;;;5.00;99.90;;;;;;5098138;28;20576;-70
2022/01/10 06:38:16;;;;;;;15.90;11.35;;;5.00;99.90;;;;;;5085279;28;20196;-72
2022/01/10 06:40:44;;;;;;;13.65;10.75;;;5.00;99.90;;;;;;5080860;28;20206;-72
2022/01/10 06:43:11;;;;;;;15.88;12.02;;;4.90;99.90;;;;;;5092744;28;20192;-67
2022/01/10 06:45:39;;;;;;;14.88;11.52;;;4.80;99.90;;;;;;5098765;27;20210;-67
2022/01/10 06:48:08;;;;;;;15.85;10.70;;;4.70;99.90;;;;;;5097951;28;20302;-67
2022/01/10 06:50:36;;;;;;;16.88;11.55;;;4.80;99.90;;;;;;5100575;28;20298;-67
2022/01/10 06:53:06;;;;;;;17.80;11.70;;;4.80;99.90;;;;;;5100873;28;20659;-67
2022/01/10 06:55:35;;;;;;;18.02;11.93;;;4.80;99.90;;;;;;5101499;28;20203;-69
2022/01/10 06:58:03;;;;;;;15.40;11.18;;;4.80;99.90;;;;;;5102174;28;20199;-67
2022/01/10 07:00:31;;;;;;;18.40;13.02;;;4.70;99.90;;;;;;5101970;28;20800;-68
2022/01/10 07:02:59;;;;;;;15.82;12.25;;;4.70;99.90;;;;;;5103137;27;20233;-67
2022/01/10 07:05:28;;;;;;;16.52;12.25;;;4.70;99.90;;;;;;5101658;28;20200;-68
2022/01/10 07:07:56;;;;;;;16.70;12.15;;;4.70;99.90;;;;;;5101088;28;20227;-67
2022/01/10 07:10:24;;;;;;;17.35;13.25;;;4.70;99.90;;;;;;5101547;28;20233;-68
2022/01/10 07:12:54;;;;;;;16.88;12.65;;;4.70;99.90;;;;;;5100777;27;20665;-68
2022/01/10 07:15:24;;;;;;;20.55;13.65;;;4.70;99.90;;;;;;5100618;28;20456;-68
2022/01/10 07:17:52;;;;;;;14.35;11.20;;;4.60;99.90;;;;;;5099333;28;20295;-68
2022/01/10 07:20:21;;;;;;;18.13;13.88;;;4.60;99.90;;;;;;5099726;28;20207;-68
2022/01/10 07:22:49;;;;;;;19.90;12.95;;;4.60;99.90;;;;;;5099134;27;20483;-68
2022/01/10 07:25:17;;;;;;;14.85;12.60;;;4.60;99.90;;;;;;5099647;28;20203;-67
2022/01/10 07:27:44;;;;;;;16.55;12.90;;;4.60;99.90;;;;;;5099373;28;20738;-66
2022/01/10 07:30:14;;;;;;;16.88;11.98;;;4.70;99.90;;;;;;5099982;28;20191;-67
2022/01/10 07:32:41;;;;;;;20.33;13.88;;;4.60;99.90;;;;;;5099173;28;20833;-68
2022/01/10 07:35:10;;;;;;;18.75;12.57;;;4.60;99.90;;;;;;5091804;28;20291;-69
2022/01/10 07:37:39;;;;;;;20.73;13.48;;;4.60;99.90;;;;;;5099538;27;20555;-68
2022/01/10 07:40:08;;;;;;;15.90;11.55;;;4.50;99.90;;;;;;5097280;28;20202;-69
2022/01/10 07:42:36;;;;;;;18.50;12.93;;;4.60;99.90;;;;;;5099067;28;20203;-69
2022/01/10 07:45:05;;;;;;;18.90;13.18;;;4.60;99.90;;;;;;5096513;28;20234;-69
2022/01/10 07:47:36;;;;;;;21.20;14.05;;;4.60;99.90;;;;;;5099966;28;20212;-68
2022/01/10 07:50:05;;;;;;;19.85;14.25;;;4.60;99.90;;;;;;5088946;28;20201;-69
2022/01/10 07:52:33;;;;;;;20.20;13.23;;;4.60;99.90;;;;;;5089857;28;20366;-69
2022/01/10 07:55:01;;;;;;;17.25;12.10;;;4.60;99.90;;;;;;5087647;27;20212;-69
2022/01/10 07:57:29;;;;;;;15.13;12.23;;;4.60;99.90;;;;;;5104157;27;20216;-68
2022/01/10 07:59:57;;;;;;;16.90;12.55;;;4.70;99.90;;;;;;5100311;27;20794;-70
2022/01/10 08:02:26;;;;;;;18.52;13.10;;;4.70;99.90;;;;;;5101749;28;20191;-68
2022/01/10 08:04:55;;;;;;;18.98;13.57;;;4.70;99.90;;;;;;5100891;27;20539;-68
2022/01/10 08:07:23;;;;;;;17.70;13.20;;;4.70;99.90;;;;;;5099550;27;20822;-69
2022/01/10 08:09:51;;;;;;;20.20;13.93;;;4.70;99.90;;;;;;5088378;28;20795;-70
2022/01/10 08:12:18;;;;;;;22.33;15.20;;;4.60;99.90;;;;;;5100835;27;20212;-70
2022/01/10 08:14:48;;;;;;;19.15;13.40;;;4.60;99.90;;;;;;5101077;28;20206;-70
2022/01/10 08:17:16;;;;;;;18.85;13.75;;;4.50;99.90;;;;;;5102543;27;20215;-67
2022/01/10 08:19:43;;;;;;;18.65;13.45;;;4.50;99.90;;;;;;5101047;27;20426;-68
2022/01/10 08:22:14;;;;;;;23.40;14.70;;;4.40;99.90;;;;;;5099657;28;20248;-67
2022/01/10 08:24:41;;;;;;;21.27;14.13;;;4.50;99.90;;;;;;5097526;28;20196;-68
2022/01/10 08:27:09;;;;;;;22.88;14.30;;;4.50;99.90;;;;;;5098560;28;20215;-69
2022/01/10 08:29:37;;;;;;;20.05;14.93;;;4.50;99.90;;;;;;5098537;28;20199;-70
2022/01/10 08:32:06;;;;;;;24.65;15.38;;;4.60;99.90;;;;;;5098361;28;20203;-69
2022/01/10 08:34:36;;;;;;;20.15;14.20;;;4.60;99.90;;;;;;5098548;28;20203;-68
2022/01/10 08:37:04;;;;;;;21.30;15.00;;;4.60;99.90;;;;;;5098379;28;20720;-69
2022/01/10 08:39:33;;;;;;;24.17;14.70;;;4.60;99.90;;;;;;5098124;28;20654;-66
2022/01/10 08:42:01;;;;;;;24.42;16.20;;;4.60;99.90;;;;;;5099560;28;20286;-68
2022/01/10 08:44:29;;;;;;;22.42;14.45;;;4.70;99.90;;;;;;5099079;28;20196;-68
2022/01/10 08:46:57;;;;;;;23.73;15.65;;;4.70;99.90;;;;;;5098749;27;20257;-67
2022/01/10 08:49:25;;;;;;;25.60;16.00;;;4.80;99.90;;;;;;5099118;28;20200;-66
2022/01/10 08:51:55;;;;;;;26.95;16.25;;;4.80;99.90;;;;;;5099194;28;20529;-73
2022/01/10 08:54:23;;;;;;;24.92;16.20;;;4.90;99.90;;;;;;5099045;28;20229;-68
2022/01/10 08:56:53;;;;;;;24.05;17.38;;;5.00;99.90;;;;;;5098953;28;20238;-74
2022/01/10 08:59:21;;;;;;;22.48;15.63;;;5.00;99.90;;;;;;5098668;28;20207;-74
2022/01/10 09:01:49;;;;;;;27.50;18.30;;;5.10;99.90;;;;;;5098867;28;20443;-78
2022/01/10 09:04:17;;;;;;;34.25;21.02;;;5.20;99.90;;;;;;5098212;28;20248;-73
2022/01/10 09:06:47;;;;;;;30.85;19.52;;;5.20;99.90;;;;;;5098127;28;20215;-73
2022/01/10 09:12:49;;;;;;;31.55;19.55;;;5.30;99.90;;;;;;5106667;28;20206;-72
2022/01/10 09:15:17;;;;;;;30.33;19.55;;;5.40;99.90;;;;;;5107011;27;20196;-71
2022/01/10 09:17:48;;;;;;;34.30;19.92;;;5.40;99.90;;;;;;5120076;27;20705;-71
2022/01/10 09:20:16;;;;;;;32.70;18.08;;;5.40;99.90;;;;;;5114623;27;20691;-72
2022/01/10 09:22:44;;;;;;;28.13;18.13;;;5.40;99.90;;;;;;5098492;27;20700;-72
2022/01/10 09:25:12;;;;;;;35.55;19.60;;;5.40;99.90;;;;;;5116742;27;20425;-71
2022/01/10 09:27:42;;;;;;;35.42;20.80;;;5.50;99.90;;;;;;5118650;27;20231;-72
2022/01/10 09:30:12;;;;;;;39.95;20.70;;;5.50;99.90;;;;;;5120379;27;20205;-71
2022/01/10 09:32:41;;;;;;;33.78;21.38;;;5.50;99.90;;;;;;5111023;27;20477;-71
2022/01/10 09:35:09;;;;;;;36.80;20.08;;;5.50;99.90;;;;;;5099615;28;20203;-71
2022/01/10 09:37:37;;;;;;;33.92;20.52;;;5.50;99.90;;;;;;5099227;28;20212;-71
2022/01/10 09:40:07;;;;;;;37.40;19.88;;;5.50;99.90;;;;;;5098937;28;20200;-71
2022/01/10 09:42:36;;;;;;;41.83;23.02;;;5.60;99.90;;;;;;5099165;28;20241;-71
2022/01/10 09:45:06;;;;;;;40.55;23.13;;;5.60;99.90;;;;;;5098060;28;20227;-71
2022/01/10 09:47:35;;;;;;;36.17;21.23;;;5.70;99.90;;;;;;5098526;28;20226;-71
2022/01/10 09:50:08;;;;;;;40.42;24.90;;;5.70;99.90;;;;;;5096767;28;20255;-71
2022/01/10 09:52:38;;;;;;;37.00;22.38;;;5.70;99.90;;;;;;5096275;28;20204;-72
2022/01/10 09:55:06;;;;;;;41.70;24.42;;;5.80;99.90;;;;;;5097701;28;20227;-74
2022/01/10 09:57:34;;;;;;;38.67;23.50;;;5.80;99.90;;;;;;5099703;28;20222;-75
2022/01/10 10:00:02;;;;;;;44.25;24.27;;;5.90;99.90;;;;;;5105742;27;20208;-77
2022/01/10 10:02:30;;;;;;;41.13;22.10;;;6.00;99.90;;;;;;5103171;28;20199;-73
2022/01/10 10:05:01;;;;;;;38.70;23.90;;;6.00;99.90;;;;;;5096210;28;20230;-74
2022/01/10 10:07:28;;;;;;;41.83;23.38;;;6.10;99.90;;;;;;5110881;28;20381;-75
2022/01/10 10:09:57;;;;;;;41.67;24.58;;;6.10;99.90;;;;;;5112835;28;20306;-74
2022/01/10 10:12:29;;;;;;;38.28;21.65;;;6.10;99.90;;;;;;5115528;27;20230;-69
2022/01/10 10:14:57;;;;;;;39.67;24.65;;;6.20;99.90;;;;;;5105937;28;20195;-70
2022/01/10 10:17:28;;;;;;;38.58;23.17;;;6.20;99.90;;;;;;5099497;28;20220;-70
2022/01/10 10:19:56;;;;;;;39.65;22.05;;;6.20;99.90;;;;;;5098837;28;20221;-70
2022/01/10 10:22:25;;;;;;;43.85;25.23;;;6.10;99.90;;;;;;5099047;28;20199;-70
2022/01/10 10:24:53;;;;;;;42.13;24.30;;;6.10;99.90;;;;;;5099013;28;20790;-69
2022/01/10 10:27:22;;;;;;;41.10;24.80;;;6.10;99.90;;;;;;5098520;27;20216;-69
2022/01/10 10:30:12;;;;;;;43.53;23.67;;;6.10;99.90;;;;;;5100795;28;20719;-69
2022/01/10 10:32:40;;;;;;;41.97;24.65;;;6.10;99.90;;;;;;5099573;28;20263;-69
2022/01/10 10:35:12;;;;;;;47.60;26.08;;;6.10;99.90;;;;;;5099783;28;20749;-72
2022/01/10 10:37:43;;;;;;;48.97;26.55;;;6.10;99.90;;;;;;5101389;28;20215;-70
2022/01/10 10:40:14;;;;;;;43.03;25.92;;;6.10;99.90;;;;;;5078798;28;20200;-70
2022/01/10 10:42:43;;;;;;;40.50;23.98;;;6.00;99.90;;;;;;5080152;28;20226;-70
2022/01/10 10:45:14;;;;;;;45.80;26.80;;;6.10;99.90;;;;;;5098173;28;20294;-69
2022/01/10 10:47:44;;;;;;;46.92;27.80;;;6.10;99.90;;;;;;5097940;28;20220;-67
2022/01/10 10:50:13;;;;;;;36.00;24.30;;;6.20;99.90;;;;;;5087280;28;20219;-75
2022/01/10 10:52:42;;;;;;;45.22;26.63;;;6.10;99.90;;;;;;5094634;28;20196;-69
2022/01/10 10:55:13;;;;;;;44.58;24.73;;;6.10;99.90;;;;;;5097557;28;20523;-67
2022/01/10 10:57:41;;;;;;;45.70;24.55;;;6.10;99.90;;;;;;5097612;27;20311;-69
2022/01/10 11:00:12;;;;;;;43.58;23.90;;;6.10;99.90;;;;;;5097546;28;20192;-70
2022/01/10 11:02:40;;;;;;;48.30;25.77;;;6.20;99.90;;;;;;5097360;28;20206;-68
2022/01/10 11:05:08;;;;;;;35.42;23.25;;;6.20;99.90;;;;;;5097386;28;20195;-68
2022/01/10 11:07:37;;;;;;;43.78;25.65;;;6.20;99.90;;;;;;5097655;28;20224;-71
2022/01/10 11:10:16;;;;;;;39.35;23.45;;;6.20;99.90;;;;;;5097391;28;20223;-68
2022/01/10 11:12:49;;;;;;;48.03;26.60;;;6.30;99.90;;;;;;5097227;28;20238;-70
2022/01/10 11:15:17;;;;;;;45.78;24.67;;;6.30;99.90;;;;;;5097387;28;20456;-69
2022/01/10 11:17:45;;;;;;;42.92;26.58;;;6.30;99.90;;;;;;5097469;28;20615;-70
2022/01/10 11:20:16;;;;;;;47.35;25.17;;;6.40;99.90;;;;;;5096980;27;20212;-70
2022/01/10 11:22:46;;;;;;;36.33;22.50;;;6.30;99.90;;;;;;5097667;28;20780;-70
2022/01/10 11:25:25;;;;;;;41.42;25.50;;;6.30;99.90;;;;;;5097321;28;20694;-69
2022/01/10 11:27:55;;;;;;;36.50;23.23;;;6.30;99.90;;;;;;5097948;28;20202;-70
2022/01/10 11:30:28;;;;;;;37.63;24.67;;;6.30;99.90;;;;;;5097157;28;20825;-69
2022/01/10 11:33:01;;;;;;;36.33;22.20;;;6.30;99.90;;;;;;5100982;28;20223;-69
2022/01/10 11:35:52;;;;;;;36.22;23.58;;;6.40;99.90;;;;;;5101055;28;20735;-70
2022/01/10 11:38:29;;;;;;;39.58;24.20;;;6.40;99.90;;;;;;5100812;27;20210;-70
2022/01/10 11:41:01;;;;;;;38.85;24.90;;;6.40;99.90;;;;;;5101753;28;20200;-72
2022/01/10 11:43:40;;;;;;;32.35;20.38;;;6.40;99.90;;;;;;5101517;28;20191;-70
2022/01/10 11:46:21;;;;;;;33.20;22.13;;;6.30;99.90;;;;;;5101807;28;20303;-70
2022/01/10 11:48:59;;;;;;;35.20;21.38;;;6.40;99.90;;;;;;5101502;28;20210;-68
2022/01/10 11:51:31;;;;;;;37.63;24.20;;;6.40;99.90;;;;;;5102861;28;20210;-70
2022/01/10 11:54:08;;;;;;;35.00;21.70;;;6.40;99.90;;;;;;5101461;27;20946;-69
2022/01/10 11:56:39;;;;;;;36.85;23.00;;;6.40;99.90;;;;;;5101355;28;20219;-68
2022/01/10 11:59:13;;;;;;;34.45;21.98;;;6.40;99.90;;;;;;5101052;28;20198;-69
2022/01/10 12:01:44;;;;;;;39.95;23.45;;;6.50;99.90;;;;;;5100773;28;20207;-70
2022/01/10 12:04:12;;;;;;;35.70;22.75;;;6.50;99.90;;;;;;5100610;28;20199;-71
2022/01/10 12:06:40;;;;;;;36.30;21.30;;;6.50;99.90;;;;;;5100803;27;20374;-70
2022/01/10 12:09:09;;;;;;;30.08;20.42;;;6.40;99.90;;;;;;5101207;28;20306;-70
2022/01/10 12:11:40;;;;;;;35.25;22.13;;;6.40;99.90;;;;;;5101411;28;20196;-68
2022/01/10 12:14:09;;;;;;;31.70;20.20;;;6.40;99.90;;;;;;5101132;28;20196;-68
2022/01/10 12:16:38;;;;;;;30.23;19.27;;;6.30;99.90;;;;;;5100588;28;20216;-69
2022/01/10 12:19:07;;;;;;;31.13;22.35;;;6.20;99.90;;;;;;5100181;28;20230;-70
2022/01/10 12:21:35;;;;;;;32.03;20.73;;;6.10;99.90;;;;;;5104944;28;20228;-71
2022/01/10 12:24:06;;;;;;;35.33;20.25;;;6.10;99.90;;;;;;5100860;28;20351;-75
2022/01/10 12:26:34;;;;;;;29.70;18.73;;;6.00;99.90;;;;;;5101109;28;20337;-73
2022/01/10 12:29:06;;;;;;;30.88;16.70;;;6.00;99.90;;;;;;5101308;27;20655;-73
2022/01/10 12:31:39;;;;;;;28.92;18.95;;;5.90;99.90;;;;;;5101847;28;20195;-73
2022/01/10 12:34:09;;;;;;;28.95;20.20;;;5.90;99.90;;;;;;5100634;28;20442;-69
2022/01/10 12:36:38;;;;;;;31.38;18.55;;;6.00;99.90;;;;;;5099423;27;20748;-68
2022/01/10 12:39:10;;;;;;;33.83;20.55;;;6.10;99.90;;;;;;5087663;28;20256;-68
2022/01/10 12:41:38;;;;;;;31.58;19.23;;;6.00;99.90;;;;;;5094074;28;20728;-68
2022/01/10 12:44:07;;;;;;;35.70;20.95;;;6.00;99.90;;;;;;5099065;28;20200;-69
2022/01/10 12:46:36;;;;;;;34.92;20.65;;;6.00;99.90;;;;;;5089922;28;20216;-69
2022/01/10 12:49:06;;;;;;;32.72;22.10;;;6.00;99.90;;;;;;5099578;28;20200;-73
2022/01/10 12:51:36;;;;;;;34.40;22.00;;;5.90;99.90;;;;;;5099864;28;20195;-71
2022/01/10 12:54:06;;;;;;;38.78;23.35;;;5.80;99.90;;;;;;5097756;28;20294;-74
2022/01/10 12:56:33;;;;;;;32.80;21.30;;;5.80;99.90;;;;;;5099213;27;20262;-71
2022/01/10 12:59:01;;;;;;;37.45;22.27;;;5.80;99.90;;;;;;5079414;28;20683;-73
2022/01/10 13:01:31;;;;;;;34.28;22.15;;;5.80;99.90;;;;;;5079764;28;20199;-73